sensor_id;sensor_type;location;lat;lon;timestamp;P1;durP1;ratioP1;P2;durP2;ratioP2
22388;SDS011;11362;48.102;11.620;2023-03-01T00:01:15;5.00;;;3.40;;
22388;SDS011;11362;48.102;11.620;2023-03-01T00:03:45;4.27;;;3.27;;
22388;SDS011;11362;48.102;11.620;2023-03-01T00:06:10;3.53;;;3.23;;
22388;SDS011;11362;48.102;11.620;2023-03-01T00:08:36;4.53;;;3.27;;
22388;SDS011;11362;48.102;11.620;2023-03-01T00:11:02;5.43;;;3.33;;
22388;SDS011;11362;48.102;11.620;2023-03-01T00:13:29;5.20;;;3.80;;
22388;SDS011;11362;48.102;11.620;2023-03-01T00:15:54;4.67;;;3.50;;
22388;SDS011;11362;48.102;11.620;2023-03-01T00:18:19;3.63;;;3.20;;
22388;SDS011;11362;48.102;11.620;2023-03-01T00:20:51;3.40;;;3.10;;
22388;SDS011;11362;48.102;11.620;2023-03-01T00:23:18;3.97;;;3.57;;
22388;SDS011;11362;48.102;11.620;2023-03-01T00:25:43;3.10;;;2.90;;
22388;SDS011;11362;48.102;11.620;2023-03-01T00:28:09;3.13;;;2.93;;
22388;SDS011;11362;48.102;11.620;2023-03-01T00:30:34;3.27;;;3.00;;
22388;SDS011;11362;48.102;11.620;2023-03-01T00:33:00;4.43;;;3.40;;
22388;SDS011;11362;48.102;11.620;2023-03-01T00:35:25;3.37;;;3.07;;
22388;SDS011;11362;48.102;11.620;2023-03-01T00:37:50;3.40;;;2.90;;
22388;SDS011;11362;48.102;11.620;2023-03-01T00:40:16;3.50;;;3.20;;
22388;SDS011;11362;48.102;11.620;2023-03-01T00:42:41;3.73;;;3.43;;
22388;SDS011;11362;48.102;11.620;2023-03-01T00:45:06;4.37;;;3.20;;
22388;SDS011;11362;48.102;11.620;2023-03-01T00:47:32;3.27;;;3.00;;
22388;SDS011;11362;48.102;11.620;2023-03-01T00:49:57;3.37;;;3.07;;
22388;SDS011;11362;48.102;11.620;2023-03-01T00:52:23;4.07;;;3.43;;
22388;SDS011;11362;48.102;11.620;2023-03-01T00:54:48;6.83;;;3.40;;
22388;SDS011;11362;48.102;11.620;2023-03-01T00:57:13;2.87;;;2.70;;
22388;SDS011;11362;48.102;11.620;2023-03-01T00:59:38;3.30;;;2.80;;
22388;SDS011;11362;48.102;11.620;2023-03-01T01:02:04;3.33;;;3.03;;
22388;SDS011;11362;48.102;11.620;2023-03-01T01:04:29;3.33;;;2.90;;
22388;SDS011;11362;48.102;11.620;2023-03-01T01:06:54;2.97;;;2.77;;
22388;SDS011;11362;48.102;11.620;2023-03-01T01:09:19;3.03;;;2.83;;
22388;SDS011;11362;48.102;11.620;2023-03-01T01:11:49;3.10;;;2.87;;
22388;SDS011;11362;48.102;11.620;2023-03-01T01:14:16;3.40;;;3.10;;
22388;SDS011;11362;48.102;11.620;2023-03-01T01:16:42;3.33;;;3.03;;
22388;SDS011;11362;48.102;11.620;2023-03-01T01:19:08;4.17;;;3.20;;
22388;SDS011;11362;48.102;11.620;2023-03-01T01:21:35;4.33;;;3.93;;
22388;SDS011;11362;48.102;11.620;2023-03-01T01:24:02;3.03;;;2.80;;
22388;SDS011;11362;48.102;11.620;2023-03-01T01:26:29;3.20;;;2.90;;
22388;SDS011;11362;48.102;11.620;2023-03-01T01:28:56;3.67;;;3.37;;
22388;SDS011;11362;48.102;11.620;2023-03-01T01:31:22;3.20;;;2.90;;
22388;SDS011;11362;48.102;11.620;2023-03-01T01:33:48;2.97;;;2.67;;
22388;SDS011;11362;48.102;11.620;2023-03-01T01:36:13;3.07;;;2.83;;
22388;SDS011;11362;48.102;11.620;2023-03-01T01:38:38;2.97;;;2.70;;
22388;SDS011;11362;48.102;11.620;2023-03-01T01:41:04;3.50;;;3.20;;
22388;SDS011;11362;48.102;11.620;2023-03-01T01:43:41;2.97;;;2.77;;
22388;SDS011;11362;48.102;11.620;2023-03-01T01:48:57;3.07;;;2.40;;
22388;SDS011;11362;48.102;11.620;2023-03-01T01:51:33;3.43;;;3.13;;
22388;SDS011;11362;48.102;11.620;2023-03-01T01:54:02;2.90;;;2.70;;
22388;SDS011;11362;48.102;11.620;2023-03-01T01:56:27;3.10;;;2.90;;
22388;SDS011;11362;48.102;11.620;2023-03-01T01:58:54;3.40;;;3.10;;
22388;SDS011;11362;48.102;11.620;2023-03-01T02:01:20;2.90;;;2.70;;
22388;SDS011;11362;48.102;11.620;2023-03-01T02:03:46;2.83;;;2.63;;
22388;SDS011;11362;48.102;11.620;2023-03-01T02:06:12;3.23;;;2.80;;
22388;SDS011;11362;48.102;11.620;2023-03-01T02:08:42;3.53;;;3.20;;
22388;SDS011;11362;48.102;11.620;2023-03-01T02:11:10;3.10;;;2.90;;
22388;SDS011;11362;48.102;11.620;2023-03-01T02:13:38;3.10;;;2.90;;
22388;SDS011;11362;48.102;11.620;2023-03-01T02:16:04;3.40;;;3.10;;
22388;SDS011;11362;48.102;11.620;2023-03-01T02:18:32;3.63;;;3.33;;
22388;SDS011;11362;48.102;11.620;2023-03-01T02:21:04;3.50;;;3.30;;
22388;SDS011;11362;48.102;11.620;2023-03-01T02:23:53;2.87;;;2.67;;
22388;SDS011;11362;48.102;11.620;2023-03-01T02:29:04;3.47;;;3.20;;
22388;SDS011;11362;48.102;11.620;2023-03-01T02:31:30;3.17;;;2.97;;
22388;SDS011;11362;48.102;11.620;2023-03-01T02:33:55;3.03;;;2.70;;
22388;SDS011;11362;48.102;11.620;2023-03-01T02:36:23;2.70;;;2.53;;
22388;SDS011;11362;48.102;11.620;2023-03-01T02:38:52;2.63;;;2.43;;
22388;SDS011;11362;48.102;11.620;2023-03-01T02:41:21;3.33;;;2.83;;
22388;SDS011;11362;48.102;11.620;2023-03-01T02:43:49;3.00;;;2.80;;
22388;SDS011;11362;48.102;11.620;2023-03-01T02:46:19;2.93;;;2.73;;
22388;SDS011;11362;48.102;11.620;2023-03-01T02:48:47;2.40;;;2.20;;
22388;SDS011;11362;48.102;11.620;2023-03-01T02:51:18;2.80;;;2.60;;
22388;SDS011;11362;48.102;11.620;2023-03-01T02:54:01;2.70;;;2.50;;
22388;SDS011;11362;48.102;11.620;2023-03-01T02:56:35;3.00;;;2.80;;
22388;SDS011;11362;48.102;11.620;2023-03-01T02:59:01;2.97;;;2.77;;
22388;SDS011;11362;48.102;11.620;2023-03-01T03:01:27;3.07;;;2.87;;
22388;SDS011;11362;48.102;11.620;2023-03-01T03:03:52;2.60;;;2.40;;
22388;SDS011;11362;48.102;11.620;2023-03-01T03:06:18;2.83;;;2.63;;
22388;SDS011;11362;48.102;11.620;2023-03-01T03:08:43;3.77;;;2.90;;
22388;SDS011;11362;48.102;11.620;2023-03-01T03:11:08;2.80;;;2.60;;
22388;SDS011;11362;48.102;11.620;2023-03-01T03:13:34;2.80;;;2.60;;
22388;SDS011;11362;48.102;11.620;2023-03-01T03:15:59;3.03;;;2.83;;
22388;SDS011;11362;48.102;11.620;2023-03-01T03:18:24;3.03;;;2.87;;
22388;SDS011;11362;48.102;11.620;2023-03-01T03:20:50;3.10;;;2.90;;
22388;SDS011;11362;48.102;11.620;2023-03-01T03:23:15;2.97;;;2.77;;
22388;SDS011;11362;48.102;11.620;2023-03-01T03:25:40;2.70;;;2.57;;
22388;SDS011;11362;48.102;11.620;2023-03-01T03:28:06;2.57;;;2.47;;
22388;SDS011;11362;48.102;11.620;2023-03-01T03:30:32;3.40;;;3.10;;
22388;SDS011;11362;48.102;11.620;2023-03-01T03:32:57;3.33;;;2.80;;
22388;SDS011;11362;48.102;11.620;2023-03-01T03:35:27;3.23;;;2.87;;
22388;SDS011;11362;48.102;11.620;2023-03-01T03:37:55;3.43;;;3.13;;
22388;SDS011;11362;48.102;11.620;2023-03-01T03:40:21;2.73;;;2.57;;
22388;SDS011;11362;48.102;11.620;2023-03-01T03:42:46;2.97;;;2.77;;
22388;SDS011;11362;48.102;11.620;2023-03-01T03:45:12;3.20;;;3.00;;
22388;SDS011;11362;48.102;11.620;2023-03-01T03:47:37;2.70;;;2.60;;
22388;SDS011;11362;48.102;11.620;2023-03-01T03:50:02;2.57;;;2.47;;
22388;SDS011;11362;48.102;11.620;2023-03-01T03:52:28;2.63;;;2.43;;
22388;SDS011;11362;48.102;11.620;2023-03-01T03:54:53;2.80;;;2.60;;
22388;SDS011;11362;48.102;11.620;2023-03-01T03:57:18;2.63;;;2.43;;
22388;SDS011;11362;48.102;11.620;2023-03-01T03:59:43;3.20;;;2.90;;
22388;SDS011;11362;48.102;11.620;2023-03-01T04:02:09;2.80;;;2.60;;
22388;SDS011;11362;48.102;11.620;2023-03-01T04:04:34;2.90;;;2.70;;
22388;SDS011;11362;48.102;11.620;2023-03-01T04:06:59;2.30;;;2.20;;
22388;SDS011;11362;48.102;11.620;2023-03-01T04:09:24;2.73;;;2.53;;
22388;SDS011;11362;48.102;11.620;2023-03-01T04:11:50;3.07;;;2.87;;
22388;SDS011;11362;48.102;11.620;2023-03-01T04:14:15;2.60;;;2.50;;
22388;SDS011;11362;48.102;11.620;2023-03-01T04:16:40;3.00;;;2.80;;
22388;SDS011;11362;48.102;11.620;2023-03-01T04:19:05;3.53;;;3.23;;
22388;SDS011;11362;48.102;11.620;2023-03-01T04:21:31;3.00;;;2.80;;
22388;SDS011;11362;48.102;11.620;2023-03-01T04:23:56;3.20;;;2.53;;
22388;SDS011;11362;48.102;11.620;2023-03-01T04:26:21;3.07;;;2.87;;
22388;SDS011;11362;48.102;11.620;2023-03-01T04:28:47;3.30;;;3.00;;
22388;SDS011;11362;48.102;11.620;2023-03-01T04:31:13;2.70;;;2.60;;
22388;SDS011;11362;48.102;11.620;2023-03-01T04:34:01;2.90;;;2.70;;
22388;SDS011;11362;48.102;11.620;2023-03-01T04:36:27;2.70;;;2.50;;
22388;SDS011;11362;48.102;11.620;2023-03-01T04:38:53;3.00;;;2.83;;
22388;SDS011;11362;48.102;11.620;2023-03-01T04:41:21;2.77;;;2.53;;
22388;SDS011;11362;48.102;11.620;2023-03-01T04:43:47;2.97;;;2.77;;
22388;SDS011;11362;48.102;11.620;2023-03-01T04:46:14;2.87;;;2.67;;
22388;SDS011;11362;48.102;11.620;2023-03-01T04:48:41;2.20;;;2.10;;
22388;SDS011;11362;48.102;11.620;2023-03-01T04:51:08;2.80;;;2.60;;
22388;SDS011;11362;48.102;11.620;2023-03-01T04:53:33;2.67;;;2.47;;
22388;SDS011;11362;48.102;11.620;2023-03-01T04:56:00;2.60;;;2.50;;
22388;SDS011;11362;48.102;11.620;2023-03-01T04:58:25;3.47;;;2.97;;
22388;SDS011;11362;48.102;11.620;2023-03-01T05:00:52;2.70;;;2.60;;
22388;SDS011;11362;48.102;11.620;2023-03-01T05:03:18;2.60;;;2.50;;
22388;SDS011;11362;48.102;11.620;2023-03-01T05:05:45;2.93;;;2.73;;
22388;SDS011;11362;48.102;11.620;2023-03-01T05:08:12;2.77;;;2.57;;
22388;SDS011;11362;48.102;11.620;2023-03-01T05:10:38;3.00;;;2.80;;
22388;SDS011;11362;48.102;11.620;2023-03-01T05:13:03;2.40;;;2.30;;
22388;SDS011;11362;48.102;11.620;2023-03-01T05:15:29;2.90;;;2.70;;
22388;SDS011;11362;48.102;11.620;2023-03-01T05:17:57;3.13;;;2.93;;
22388;SDS011;11362;48.102;11.620;2023-03-01T05:20:24;2.80;;;2.60;;
22388;SDS011;11362;48.102;11.620;2023-03-01T05:22:51;3.00;;;2.80;;
22388;SDS011;11362;48.102;11.620;2023-03-01T05:25:17;2.73;;;2.53;;
22388;SDS011;11362;48.102;11.620;2023-03-01T05:27:43;2.70;;;2.50;;
22388;SDS011;11362;48.102;11.620;2023-03-01T05:30:08;3.03;;;2.77;;
22388;SDS011;11362;48.102;11.620;2023-03-01T05:32:34;2.83;;;2.63;;
22388;SDS011;11362;48.102;11.620;2023-03-01T05:35:00;2.73;;;2.57;;
22388;SDS011;11362;48.102;11.620;2023-03-01T05:37:25;2.50;;;2.40;;
22388;SDS011;11362;48.102;11.620;2023-03-01T05:39:50;2.33;;;2.13;;
22388;SDS011;11362;48.102;11.620;2023-03-01T05:42:15;3.10;;;2.80;;
22388;SDS011;11362;48.102;11.620;2023-03-01T05:44:41;2.70;;;2.53;;
22388;SDS011;11362;48.102;11.620;2023-03-01T05:47:06;3.03;;;2.80;;
22388;SDS011;11362;48.102;11.620;2023-03-01T05:49:31;2.90;;;2.70;;
22388;SDS011;11362;48.102;11.620;2023-03-01T05:51:57;2.57;;;2.37;;
22388;SDS011;11362;48.102;11.620;2023-03-01T05:54:22;2.80;;;2.60;;
22388;SDS011;11362;48.102;11.620;2023-03-01T05:56:47;3.10;;;2.90;;
22388;SDS011;11362;48.102;11.620;2023-03-01T05:59:12;3.20;;;2.97;;
22388;SDS011;11362;48.102;11.620;2023-03-01T06:01:38;2.80;;;2.60;;
22388;SDS011;11362;48.102;11.620;2023-03-01T06:04:03;3.10;;;2.80;;
22388;SDS011;11362;48.102;11.620;2023-03-01T06:06:29;3.60;;;2.70;;
22388;SDS011;11362;48.102;11.620;2023-03-01T06:08:58;3.03;;;2.83;;
22388;SDS011;11362;48.102;11.620;2023-03-01T06:11:23;3.30;;;3.03;;
22388;SDS011;11362;48.102;11.620;2023-03-01T06:13:48;7.03;;;3.10;;
22388;SDS011;11362;48.102;11.620;2023-03-01T06:16:14;5.17;;;3.30;;
22388;SDS011;11362;48.102;11.620;2023-03-01T06:18:39;10.57;;;3.87;;
22388;SDS011;11362;48.102;11.620;2023-03-01T06:21:06;9.70;;;3.67;;
22388;SDS011;11362;48.102;11.620;2023-03-01T06:23:32;12.43;;;4.00;;
22388;SDS011;11362;48.102;11.620;2023-03-01T06:25:58;7.00;;;3.40;;
22388;SDS011;11362;48.102;11.620;2023-03-01T06:28:23;8.40;;;3.50;;
22388;SDS011;11362;48.102;11.620;2023-03-01T06:30:49;7.17;;;3.37;;
22388;SDS011;11362;48.102;11.620;2023-03-01T06:33:15;9.33;;;3.60;;
22388;SDS011;11362;48.102;11.620;2023-03-01T06:35:40;7.50;;;3.67;;
22388;SDS011;11362;48.102;11.620;2023-03-01T06:38:06;9.80;;;4.10;;
22388;SDS011;11362;48.102;11.620;2023-03-01T06:40:31;16.13;;;4.23;;
22388;SDS011;11362;48.102;11.620;2023-03-01T06:42:57;15.07;;;3.97;;
22388;SDS011;11362;48.102;11.620;2023-03-01T06:45:23;12.37;;;5.20;;
22388;SDS011;11362;48.102;11.620;2023-03-01T06:47:48;14.17;;;4.10;;
22388;SDS011;11362;48.102;11.620;2023-03-01T06:50:17;10.33;;;3.80;;
22388;SDS011;11362;48.102;11.620;2023-03-01T06:52:43;9.10;;;3.57;;
22388;SDS011;11362;48.102;11.620;2023-03-01T06:55:10;12.50;;;3.70;;
22388;SDS011;11362;48.102;11.620;2023-03-01T06:57:36;18.93;;;5.37;;
22388;SDS011;11362;48.102;11.620;2023-03-01T07:00:01;18.27;;;4.40;;
22388;SDS011;11362;48.102;11.620;2023-03-01T07:02:28;11.17;;;4.20;;
22388;SDS011;11362;48.102;11.620;2023-03-01T07:04:53;8.33;;;4.43;;
22388;SDS011;11362;48.102;11.620;2023-03-01T07:07:19;10.57;;;4.90;;
22388;SDS011;11362;48.102;11.620;2023-03-01T07:09:45;9.87;;;3.93;;
22388;SDS011;11362;48.102;11.620;2023-03-01T07:12:11;6.50;;;4.53;;
22388;SDS011;11362;48.102;11.620;2023-03-01T07:14:36;5.73;;;3.60;;
22388;SDS011;11362;48.102;11.620;2023-03-01T07:17:01;13.47;;;4.20;;
22388;SDS011;11362;48.102;11.620;2023-03-01T07:19:27;8.23;;;3.70;;
22388;SDS011;11362;48.102;11.620;2023-03-01T07:21:52;13.03;;;10.20;;
22388;SDS011;11362;48.102;11.620;2023-03-01T07:24:18;11.20;;;9.97;;
22388;SDS011;11362;48.102;11.620;2023-03-01T07:26:43;13.00;;;7.87;;
22388;SDS011;11362;48.102;11.620;2023-03-01T07:29:09;10.90;;;7.60;;
22388;SDS011;11362;48.102;11.620;2023-03-01T07:31:35;11.50;;;6.57;;
22388;SDS011;11362;48.102;11.620;2023-03-01T07:34:01;8.13;;;6.50;;
22388;SDS011;11362;48.102;11.620;2023-03-01T07:36:26;11.43;;;6.40;;
22388;SDS011;11362;48.102;11.620;2023-03-01T07:38:52;12.23;;;6.63;;
22388;SDS011;11362;48.102;11.620;2023-03-01T07:41:17;8.83;;;5.30;;
22388;SDS011;11362;48.102;11.620;2023-03-01T07:43:43;8.47;;;5.67;;
22388;SDS011;11362;48.102;11.620;2023-03-01T07:46:08;8.33;;;5.10;;
22388;SDS011;11362;48.102;11.620;2023-03-01T07:48:33;8.77;;;5.60;;
22388;SDS011;11362;48.102;11.620;2023-03-01T07:51:02;9.10;;;5.47;;
22388;SDS011;11362;48.102;11.620;2023-03-01T07:53:29;9.23;;;5.27;;
22388;SDS011;11362;48.102;11.620;2023-03-01T07:56:05;9.07;;;4.20;;
22388;SDS011;11362;48.102;11.620;2023-03-01T07:58:33;6.73;;;4.57;;
22388;SDS011;11362;48.102;11.620;2023-03-01T08:01:03;7.67;;;4.87;;
22388;SDS011;11362;48.102;11.620;2023-03-01T08:03:30;8.23;;;4.77;;
22388;SDS011;11362;48.102;11.620;2023-03-01T08:05:55;5.30;;;4.70;;
22388;SDS011;11362;48.102;11.620;2023-03-01T08:08:20;5.07;;;4.10;;
22388;SDS011;11362;48.102;11.620;2023-03-01T08:10:46;6.90;;;4.57;;
22388;SDS011;11362;48.102;11.620;2023-03-01T08:13:11;7.50;;;4.40;;
22388;SDS011;11362;48.102;11.620;2023-03-01T08:15:36;7.00;;;4.37;;
22388;SDS011;11362;48.102;11.620;2023-03-01T08:18:01;7.23;;;4.87;;
22388;SDS011;11362;48.102;11.620;2023-03-01T08:20:27;6.93;;;4.13;;
22388;SDS011;11362;48.102;11.620;2023-03-01T08:22:52;4.43;;;4.00;;
22388;SDS011;11362;48.102;11.620;2023-03-01T08:25:17;5.97;;;4.40;;
22388;SDS011;11362;48.102;11.620;2023-03-01T08:27:43;7.43;;;4.60;;
22388;SDS011;11362;48.102;11.620;2023-03-01T08:30:08;6.17;;;4.63;;
22388;SDS011;11362;48.102;11.620;2023-03-01T08:32:35;6.73;;;4.37;;
22388;SDS011;11362;48.102;11.620;2023-03-01T08:35:02;5.70;;;4.10;;
22388;SDS011;11362;48.102;11.620;2023-03-01T08:37:27;4.57;;;3.70;;
22388;SDS011;11362;48.102;11.620;2023-03-01T08:39:52;6.10;;;3.97;;
22388;SDS011;11362;48.102;11.620;2023-03-01T08:42:17;6.43;;;4.20;;
22388;SDS011;11362;48.102;11.620;2023-03-01T08:44:43;5.57;;;4.37;;
22388;SDS011;11362;48.102;11.620;2023-03-01T08:47:08;5.77;;;3.87;;
22388;SDS011;11362;48.102;11.620;2023-03-01T08:49:33;4.57;;;4.00;;
22388;SDS011;11362;48.102;11.620;2023-03-01T08:51:59;4.57;;;4.10;;
22388;SDS011;11362;48.102;11.620;2023-03-01T08:54:24;4.47;;;4.07;;
22388;SDS011;11362;48.102;11.620;2023-03-01T08:56:49;4.80;;;4.10;;
22388;SDS011;11362;48.102;11.620;2023-03-01T08:59:17;4.37;;;3.60;;
22388;SDS011;11362;48.102;11.620;2023-03-01T09:01:43;7.27;;;4.33;;
22388;SDS011;11362;48.102;11.620;2023-03-01T09:04:09;5.93;;;3.97;;
22388;SDS011;11362;48.102;11.620;2023-03-01T09:06:35;6.00;;;3.93;;
22388;SDS011;11362;48.102;11.620;2023-03-01T09:09:01;7.93;;;4.43;;
22388;SDS011;11362;48.102;11.620;2023-03-01T09:11:27;4.20;;;3.80;;
22388;SDS011;11362;48.102;11.620;2023-03-01T09:13:53;5.33;;;3.60;;
22388;SDS011;11362;48.102;11.620;2023-03-01T09:16:19;5.90;;;3.60;;
22388;SDS011;11362;48.102;11.620;2023-03-01T09:18:50;3.93;;;3.63;;
22388;SDS011;11362;48.102;11.620;2023-03-01T09:21:17;5.90;;;3.60;;
22388;SDS011;11362;48.102;11.620;2023-03-01T09:23:44;6.53;;;4.33;;
22388;SDS011;11362;48.102;11.620;2023-03-01T09:26:15;7.57;;;3.77;;
22388;SDS011;11362;48.102;11.620;2023-03-01T09:28:42;4.67;;;3.73;;
22388;SDS011;11362;48.102;11.620;2023-03-01T09:31:08;4.97;;;3.67;;
22388;SDS011;11362;48.102;11.620;2023-03-01T09:33:33;3.90;;;3.43;;
22388;SDS011;11362;48.102;11.620;2023-03-01T09:36:00;4.13;;;3.73;;
22388;SDS011;11362;48.102;11.620;2023-03-01T09:38:27;6.30;;;4.10;;
22388;SDS011;11362;48.102;11.620;2023-03-01T09:40:53;3.97;;;3.67;;
22388;SDS011;11362;48.102;11.620;2023-03-01T09:43:23;5.70;;;4.10;;
22388;SDS011;11362;48.102;11.620;2023-03-01T09:45:54;3.63;;;3.33;;
22388;SDS011;11362;48.102;11.620;2023-03-01T09:48:25;4.03;;;3.53;;
22388;SDS011;11362;48.102;11.620;2023-03-01T09:50:52;6.17;;;3.70;;
22388;SDS011;11362;48.102;11.620;2023-03-01T09:53:21;5.53;;;4.40;;
22388;SDS011;11362;48.102;11.620;2023-03-01T09:55:59;4.37;;;3.90;;
22388;SDS011;11362;48.102;11.620;2023-03-01T09:58:35;5.97;;;3.77;;
22388;SDS011;11362;48.102;11.620;2023-03-01T10:01:20;3.70;;;3.20;;
22388;SDS011;11362;48.102;11.620;2023-03-01T10:04:23;3.73;;;3.40;;
22388;SDS011;11362;48.102;11.620;2023-03-01T10:09:34;5.23;;;3.90;;
22388;SDS011;11362;48.102;11.620;2023-03-01T10:12:02;4.50;;;4.10;;
22388;SDS011;11362;48.102;11.620;2023-03-01T10:14:39;9.53;;;4.10;;
22388;SDS011;11362;48.102;11.620;2023-03-01T10:17:09;4.47;;;3.50;;
22388;SDS011;11362;48.102;11.620;2023-03-01T10:19:54;6.07;;;4.00;;
22388;SDS011;11362;48.102;11.620;2023-03-01T10:24:57;6.37;;;3.73;;
22388;SDS011;11362;48.102;11.620;2023-03-01T10:27:25;6.17;;;3.63;;
22388;SDS011;11362;48.102;11.620;2023-03-01T10:32:48;9.60;;;6.10;;
22388;SDS011;11362;48.102;11.620;2023-03-01T10:35:17;9.20;;;6.70;;
22388;SDS011;11362;48.102;11.620;2023-03-01T10:38:23;8.53;;;6.63;;
22388;SDS011;11362;48.102;11.620;2023-03-01T10:43:43;11.13;;;6.40;;
22388;SDS011;11362;48.102;11.620;2023-03-01T10:46:35;8.17;;;6.30;;
22388;SDS011;11362;48.102;11.620;2023-03-01T10:49:05;9.70;;;6.47;;
22388;SDS011;11362;48.102;11.620;2023-03-01T10:51:48;7.67;;;5.40;;
22388;SDS011;11362;48.102;11.620;2023-03-01T10:54:31;6.30;;;5.50;;
22388;SDS011;11362;48.102;11.620;2023-03-01T10:56:58;9.67;;;6.00;;
22388;SDS011;11362;48.102;11.620;2023-03-01T10:59:30;9.80;;;5.83;;
22388;SDS011;11362;48.102;11.620;2023-03-01T11:02:02;6.07;;;5.03;;
22388;SDS011;11362;48.102;11.620;2023-03-01T11:04:34;7.07;;;5.17;;
22388;SDS011;11362;48.102;11.620;2023-03-01T11:06:59;8.17;;;5.73;;
22388;SDS011;11362;48.102;11.620;2023-03-01T11:09:25;6.33;;;5.10;;
22388;SDS011;11362;48.102;11.620;2023-03-01T11:11:54;8.23;;;5.53;;
22388;SDS011;11362;48.102;11.620;2023-03-01T11:14:22;6.50;;;5.07;;
22388;SDS011;11362;48.102;11.620;2023-03-01T11:17:03;7.60;;;4.90;;
22388;SDS011;11362;48.102;11.620;2023-03-01T11:19:31;10.30;;;4.90;;
22388;SDS011;11362;48.102;11.620;2023-03-01T11:24:46;7.20;;;4.90;;
22388;SDS011;11362;48.102;11.620;2023-03-01T11:27:21;5.70;;;4.67;;
22388;SDS011;11362;48.102;11.620;2023-03-01T11:29:52;7.80;;;5.00;;
22388;SDS011;11362;48.102;11.620;2023-03-01T11:32:22;5.63;;;4.07;;
22388;SDS011;11362;48.102;11.620;2023-03-01T11:34:56;5.03;;;4.20;;
22388;SDS011;11362;48.102;11.620;2023-03-01T11:40:12;5.27;;;4.13;;
22388;SDS011;11362;48.102;11.620;2023-03-01T11:45:22;5.57;;;5.03;;
22388;SDS011;11362;48.102;11.620;2023-03-01T11:50:46;6.43;;;4.33;;
22388;SDS011;11362;48.102;11.620;2023-03-01T11:56:04;4.23;;;3.83;;
22388;SDS011;11362;48.102;11.620;2023-03-01T12:15:28;4.77;;;4.27;;
22388;SDS011;11362;48.102;11.620;2023-03-01T12:18:10;4.47;;;4.10;;
22388;SDS011;11362;48.102;11.620;2023-03-01T12:20:46;5.13;;;4.33;;
22388;SDS011;11362;48.102;11.620;2023-03-01T12:23:24;4.20;;;3.77;;
22388;SDS011;11362;48.102;11.620;2023-03-01T12:37:41;4.93;;;4.07;;
22388;SDS011;11362;48.102;11.620;2023-03-01T12:43:09;4.63;;;3.80;;
22388;SDS011;11362;48.102;11.620;2023-03-01T12:51:24;4.80;;;3.83;;
22388;SDS011;11362;48.102;11.620;2023-03-01T12:53:53;7.47;;;4.37;;
22388;SDS011;11362;48.102;11.620;2023-03-01T12:56:25;6.97;;;4.33;;
22388;SDS011;11362;48.102;11.620;2023-03-01T12:58:59;6.77;;;3.93;;
22388;SDS011;11362;48.102;11.620;2023-03-01T13:01:52;4.40;;;4.00;;
22388;SDS011;11362;48.102;11.620;2023-03-01T13:17:46;5.50;;;3.67;;
22388;SDS011;11362;48.102;11.620;2023-03-01T13:20:13;5.47;;;4.10;;
22388;SDS011;11362;48.102;11.620;2023-03-01T13:22:40;5.87;;;4.27;;
22388;SDS011;11362;48.102;11.620;2023-03-01T13:25:16;5.20;;;4.30;;
22388;SDS011;11362;48.102;11.620;2023-03-01T13:27:44;4.73;;;3.90;;
22388;SDS011;11362;48.102;11.620;2023-03-01T13:35:48;8.37;;;4.33;;
22388;SDS011;11362;48.102;11.620;2023-03-01T13:41:48;4.93;;;4.00;;
22388;SDS011;11362;48.102;11.620;2023-03-01T13:46:42;9.03;;;3.93;;
22388;SDS011;11362;48.102;11.620;2023-03-01T13:49:09;7.93;;;4.00;;
22388;SDS011;11362;48.102;11.620;2023-03-01T13:51:41;6.47;;;4.60;;
22388;SDS011;11362;48.102;11.620;2023-03-01T13:54:09;6.10;;;3.93;;
22388;SDS011;11362;48.102;11.620;2023-03-01T13:56:37;4.30;;;3.80;;
22388;SDS011;11362;48.102;11.620;2023-03-01T13:59:04;5.10;;;4.03;;
22388;SDS011;11362;48.102;11.620;2023-03-01T14:01:38;6.70;;;4.17;;
22388;SDS011;11362;48.102;11.620;2023-03-01T14:04:03;4.63;;;3.70;;
22388;SDS011;11362;48.102;11.620;2023-03-01T14:07:09;4.33;;;3.50;;
22388;SDS011;11362;48.102;11.620;2023-03-01T14:09:39;5.27;;;4.13;;
22388;SDS011;11362;48.102;11.620;2023-03-01T14:17:36;5.90;;;3.83;;
22388;SDS011;11362;48.102;11.620;2023-03-01T14:22:41;3.47;;;3.13;;
22388;SDS011;11362;48.102;11.620;2023-03-01T14:28:17;8.53;;;4.50;;
22388;SDS011;11362;48.102;11.620;2023-03-01T14:38:27;7.67;;;4.00;;
22388;SDS011;11362;48.102;11.620;2023-03-01T14:41:01;4.83;;;3.97;;
22388;SDS011;11362;48.102;11.620;2023-03-01T14:43:29;5.07;;;3.93;;
22388;SDS011;11362;48.102;11.620;2023-03-01T14:45:55;4.60;;;4.20;;
22388;SDS011;11362;48.102;11.620;2023-03-01T14:48:21;10.00;;;4.23;;
22388;SDS011;11362;48.102;11.620;2023-03-01T14:50:47;4.40;;;3.80;;
22388;SDS011;11362;48.102;11.620;2023-03-01T14:53:21;4.43;;;4.10;;
22388;SDS011;11362;48.102;11.620;2023-03-01T14:55:54;6.93;;;4.20;;
22388;SDS011;11362;48.102;11.620;2023-03-01T14:58:22;4.63;;;4.23;;
22388;SDS011;11362;48.102;11.620;2023-03-01T15:00:59;4.63;;;4.13;;
22388;SDS011;11362;48.102;11.620;2023-03-01T15:03:32;6.10;;;5.13;;
22388;SDS011;11362;48.102;11.620;2023-03-01T15:06:01;10.53;;;4.87;;
22388;SDS011;11362;48.102;11.620;2023-03-01T15:08:27;5.57;;;4.93;;
22388;SDS011;11362;48.102;11.620;2023-03-01T15:11:01;7.20;;;4.83;;
22388;SDS011;11362;48.102;11.620;2023-03-01T15:13:39;11.17;;;4.60;;
22388;SDS011;11362;48.102;11.620;2023-03-01T15:16:24;6.10;;;4.50;;
22388;SDS011;11362;48.102;11.620;2023-03-01T15:18:59;11.90;;;5.13;;
22388;SDS011;11362;48.102;11.620;2023-03-01T15:21:36;7.50;;;5.03;;
22388;SDS011;11362;48.102;11.620;2023-03-01T15:29:19;17.07;;;4.90;;
22388;SDS011;11362;48.102;11.620;2023-03-01T15:31:57;11.73;;;5.00;;
22388;SDS011;11362;48.102;11.620;2023-03-01T15:36:50;8.63;;;5.10;;
22388;SDS011;11362;48.102;11.620;2023-03-01T15:39:26;11.40;;;5.30;;
22388;SDS011;11362;48.102;11.620;2023-03-01T15:41:56;11.83;;;5.03;;
22388;SDS011;11362;48.102;11.620;2023-03-01T15:44:26;6.87;;;4.90;;
22388;SDS011;11362;48.102;11.620;2023-03-01T15:46:53;13.83;;;6.50;;
22388;SDS011;11362;48.102;11.620;2023-03-01T15:51:46;14.17;;;5.93;;
22388;SDS011;11362;48.102;11.620;2023-03-01T15:54:17;23.07;;;6.53;;
22388;SDS011;11362;48.102;11.620;2023-03-01T15:56:44;17.13;;;6.03;;
22388;SDS011;11362;48.102;11.620;2023-03-01T15:59:10;24.53;;;6.50;;
22388;SDS011;11362;48.102;11.620;2023-03-01T16:01:36;20.13;;;6.83;;
22388;SDS011;11362;48.102;11.620;2023-03-01T16:04:01;23.57;;;6.80;;
22388;SDS011;11362;48.102;11.620;2023-03-01T16:06:26;41.47;;;18.30;;
22388;SDS011;11362;48.102;11.620;2023-03-01T16:08:52;103.23;;;49.23;;
22388;SDS011;11362;48.102;11.620;2023-03-01T16:11:18;107.27;;;56.03;;
22388;SDS011;11362;48.102;11.620;2023-03-01T16:13:45;144.23;;;85.23;;
22388;SDS011;11362;48.102;11.620;2023-03-01T16:16:11;104.37;;;66.07;;
22388;SDS011;11362;48.102;11.620;2023-03-01T16:18:38;94.60;;;54.33;;
22388;SDS011;11362;48.102;11.620;2023-03-01T16:21:03;87.73;;;50.47;;
22388;SDS011;11362;48.102;11.620;2023-03-01T16:23:29;76.83;;;46.43;;
22388;SDS011;11362;48.102;11.620;2023-03-01T16:25:55;64.77;;;40.57;;
22388;SDS011;11362;48.102;11.620;2023-03-01T16:28:24;114.77;;;55.67;;
22388;SDS011;11362;48.102;11.620;2023-03-01T16:30:49;183.43;;;95.67;;
22388;SDS011;11362;48.102;11.620;2023-03-01T16:33:14;212.97;;;122.80;;
22388;SDS011;11362;48.102;11.620;2023-03-01T16:35:40;187.77;;;101.50;;
22388;SDS011;11362;48.102;11.620;2023-03-01T16:38:05;145.17;;;83.10;;